Sunday, August 19, 2018, 12:29 AM GMT
Back to Local

CYQB, Quebec, Que

Location: , , Canada Lat: 46.8
Local Time: 12:29 AM GMT ( 0:29 GMT) Lon: -71.383
Time Zone: GMT Elev: 229 ft

Show me the last for .
Show Decoded

2018-08-19 00:00 METAR CYQB 190000Z 07009KT 30SM FEW040 FEW080 21/14 A2994 RMK CU1AC2 CU TR
                 SLP142 DENSITY ALT 1000FT =
2018-08-18 23:00 METAR CYQB 182300Z 07008KT 30SM FEW035 FEW080 23/14 A2993 RMK CU1AC1 CU TR
                 SLP138 DENSITY ALT 1200FT =
2018-08-18 22:00 METAR CYQB 182200Z 08008KT 30SM FEW035 FEW065 FEW260 23/15 A2992 RMK CU1SC1CI1
                 SC TR CI TR SLP133 DENSITY ALT 1300FT =
2018-08-18 21:00 METAR CYQB 182100Z 08011KT 30SM FEW035 FEW065 SCT260 24/16 A2991 RMK CU1SC1CI1
                 SLP129 DENSITY ALT 1300FT =
2018-08-18 20:00 METAR CYQB 182000Z 09007KT 040V110 30SM FEW035 SCT065 SCT260 24/16 A2991 RMK
                 CU2SC1CI1 SLP129 DENSITY ALT 1400FT =
2018-08-18 19:00 METAR CYQB 181900Z 05006KT 030V130 30SM FEW032 SCT260 24/16 A2990 RMK CU1CI2
                 SLP128 DENSITY ALT 1400FT =
2018-08-18 18:00 METAR CYQB 181800Z 13002KT 30SM FEW024 FEW035 FEW220 23/17 A2991 RMK CU1CU1CI1
                 CU TR SLP130 DENSITY ALT 1300FT =
2018-08-18 17:00 METAR CYQB 181700Z 04005KT 30SM FEW028 FEW035 SCT220 22/15 A2991 RMK CU1CU1CI3
                 CU TR CONTRAILS SLP131 DENSITY ALT 1200FT =
2018-08-18 16:00 METAR CYQB 181600Z 05006KT 030V100 30SM SCT027 SCT170 BKN220 21/16 A2992 RMK
                 CU3AC1CI3 AC TR SLP132 DENSITY ALT 1100FT =
2018-08-18 15:00 METAR CYQB 181500Z 08009KT 30SM SCT024 SCT170 BKN220 20/15 A2991 RMK CU3AC1CS4
                 AC TR SLP131 DENSITY ALT 1000FT =
2018-08-18 14:00 METAR CYQB 181400Z 04005KT 30SM FEW020 SCT170 BKN240 20/16 A2990 RMK CU2AC1CS4
                 SLP128 DENSITY ALT 900FT =
2018-08-18 13:00 METAR CYQB 181300Z 03005KT 350V050 30SM FEW017 SCT240 BKN260 18/15 A2990 RMK
                 SC1CS3CI3 SC MNLY S OF STLAWR SLP128 DENSITY ALT 800FT =
2018-08-18 12:00 METAR CYQB 181200Z 01005KT 30SM FEW017 FEW030 BKN240 BKN260 17/14 A2990 RMK
                 SC1SC1CS4CI2 SC TR SLP126 DENSITY ALT 600FT =
2018-08-18 11:00 METAR CYQB 181100Z 01004KT 30SM FEW017 FEW030 SCT240 BKN260 15/14 A2989 RMK
                 SC1SC1CS2CI4 SC TR SLP124 DENSITY ALT 400FT =
2018-08-18 10:00 METAR CYQB 181000Z 01006KT 30SM FEW015 SCT030 BKN240 15/14 A2987 RMK SF1SC4CI2
                 SF TR DIST SF SE SLP119 DENSITY ALT 400FT =
2018-08-18 09:00 METAR CYQB 180900Z 36005KT 15SM FEW020 FEW060 BKN120 15/14 A2986 RMK SC1SC1AC5
                 SLP114 DENSITY ALT 500FT =
2018-08-18 08:00 METAR CYQB 180800Z 01006KT 15SM FEW020 OVC120 16/14 A2985 RMK SC2AC6 SLP110
                 DENSITY ALT 500FT =
2018-08-18 07:00 METAR CYQB 180700Z 03008KT 15SM SCT020 OVC060 16/14 A2985 RMK SC3SC5 SLP111
                 DENSITY ALT 600FT =
2018-08-18 06:00 METAR CYQB 180600Z 02007KT 15SM SCT020 OVC060 16/14 A2985 RMK SC4SC4 SLP111
                 DENSITY ALT 500FT =
2018-08-18 05:00 METAR CYQB 180500Z 06016G26KT 15SM SCT012 BKN060 OVC110 16/14 A2986 RMK
                 SF3SC2AC3 SLP112 DENSITY ALT 500FT =
2018-08-18 04:50 METAR CYQB 180450Z 07019G25KT 15SM SCT012 BKN060 OVC110 16/14 A2986 RMK
                 SF3SC2AC3 SLP113 DENSITY ALT 500FT =
2018-08-18 04:19 METAR CYQB 180419Z 07013KT 6SM -RA BR SCT012 OVC060 17/16 A2987 RMK SF4SC4
                 SLP116 DENSITY ALT 600FT =
2018-08-18 04:00 METAR CYQB 180400Z 05017KT 020V080 6SM -RA BR BKN009 OVC020 17/16 A2986 RMK
                 SF5SC3 SLP114 DENSITY ALT 600FT =
2018-08-18 03:00 METAR CYQB 180300Z 02005KT 3SM -RA BR BKN006 OVC020 17/17 A2988 RMK SF5SC3
                 PRESRR SLP119 DENSITY ALT 700FT =
2018-08-18 02:44 METAR CYQB 180244Z 04008KT 3SM -RA BR SCT006 OVC020 17/17 A2986 RMK SF4SC4
                 SLP115 DENSITY ALT 700FT =
2018-08-18 02:27 METAR CYQB 180227Z 05010KT 1 1/4SM R06/4000VP6000FT/D -RA BR BKN004 VV012 17/17
                 A2987 RMK SF5RA3 SLP118 DENSITY ALT 700FT =
2018-08-18 02:00 METAR CYQB 180200Z 03006KT 3SM -RA BR BKN004 VV012 17/17 A2988 RMK SF5RA3 SLP121
                 DENSITY ALT 700FT =
2018-08-18 01:53 METAR CYQB 180153Z 03007KT 3SM R06/4000VP6000FT/U -RA BR BKN004 VV012 17/17
                 A2988 RMK SF5RA3 SLP120 DENSITY ALT 700FT =
2018-08-18 01:41 METAR CYQB 180141Z 02009KT 350V050 1SM R06/2800FT/N RA BR VV003 17/17 A2988 RMK
                 RA8 SLP120 DENSITY ALT 700FT =
2018-08-18 01:34 METAR CYQB 180134Z 02006G16KT 1 3/4SM RA BR OVC003 17/17 A2988 RMK ST8 PRESRR
                 SLP122 DENSITY ALT 700FT =
2018-08-18 01:00 METAR CYQB 180100Z 05011G17KT 4SM -RA BR BKN004 OVC022 18/17 A2987 RMK ST6SC2
                 SLP116 DENSITY ALT 700FT =

Support USWX by starting your Amazon purchase here.